sensor_id;sensor_type;location;lat;lon;timestamp;noise_LAeq;noise_LA_min;noise_LA_max;noise_LA01;noise_LA95
67320;Laerm;57665;51.436;5.978;2022-09-06T00:00:03;63.68;60.13;71.46;;
67320;Laerm;57665;51.436;5.978;2022-09-06T00:00:15;61.28;44.29;66.26;;
67320;Laerm;57665;51.436;5.978;2022-09-06T00:00:27;42.31;40.24;47.48;;
67320;Laerm;57665;51.436;5.978;2022-09-06T00:00:38;41.50;40.04;45.84;;
67320;Laerm;57665;51.436;5.978;2022-09-06T00:00:48;41.46;39.99;46.08;;
67320;Laerm;57665;51.436;5.978;2022-09-06T00:00:59;41.42;39.57;46.49;;
67320;Laerm;57665;51.436;5.978;2022-09-06T00:01:10;41.40;40.11;46.81;;
67320;Laerm;57665;51.436;5.978;2022-09-06T00:01:21;41.57;40.26;45.98;;
67320;Laerm;57665;51.436;5.978;2022-09-06T00:01:32;41.63;40.25;46.70;;
67320;Laerm;57665;51.436;5.978;2022-09-06T00:01:42;41.58;40.30;46.96;;
67320;Laerm;57665;51.436;5.978;2022-09-06T00:01:53;41.21;39.75;44.98;;
67320;Laerm;57665;51.436;5.978;2022-09-06T00:02:03;41.08;39.93;43.49;;
67320;Laerm;57665;51.436;5.978;2022-09-06T00:02:13;41.18;39.86;45.44;;
67320;Laerm;57665;51.436;5.978;2022-09-06T00:02:23;40.93;39.58;44.97;;
67320;Laerm;57665;51.436;5.978;2022-09-06T00:02:34;40.84;39.37;45.04;;
67320;Laerm;57665;51.436;5.978;2022-09-06T00:02:44;41.10;39.66;49.82;;
67320;Laerm;57665;51.436;5.978;2022-09-06T00:02:56;41.03;39.50;45.93;;
67320;Laerm;57665;51.436;5.978;2022-09-06T00:03:06;41.08;39.46;45.10;;
67320;Laerm;57665;51.436;5.978;2022-09-06T00:03:20;41.21;39.93;45.03;;
67320;Laerm;57665;51.436;5.978;2022-09-06T00:03:30;41.29;39.93;44.83;;
67320;Laerm;57665;51.436;5.978;2022-09-06T00:03:40;41.23;40.05;46.60;;
67320;Laerm;57665;51.436;5.978;2022-09-06T00:03:50;41.35;40.03;45.16;;
67320;Laerm;57665;51.436;5.978;2022-09-06T00:04:00;41.28;39.97;45.95;;
67320;Laerm;57665;51.436;5.978;2022-09-06T00:04:11;41.16;39.62;44.03;;
67320;Laerm;57665;51.436;5.978;2022-09-06T00:04:21;41.55;40.02;45.91;;
67320;Laerm;57665;51.436;5.978;2022-09-06T00:04:31;63.41;41.02;72.72;;
67320;Laerm;57665;51.436;5.978;2022-09-06T00:04:41;68.26;62.91;73.39;;
67320;Laerm;57665;51.436;5.978;2022-09-06T00:04:52;61.84;41.96;69.98;;
67320;Laerm;57665;51.436;5.978;2022-09-06T00:05:02;41.45;39.52;45.88;;
67320;Laerm;57665;51.436;5.978;2022-09-06T00:05:13;40.78;39.53;43.87;;
67320;Laerm;57665;51.436;5.978;2022-09-06T00:05:23;40.69;39.31;46.06;;
67320;Laerm;57665;51.436;5.978;2022-09-06T00:05:34;40.86;39.41;49.23;;
67320;Laerm;57665;51.436;5.978;2022-09-06T00:05:44;40.86;39.47;47.07;;
67320;Laerm;57665;51.436;5.978;2022-09-06T00:05:54;40.72;39.51;47.57;;
67320;Laerm;57665;51.436;5.978;2022-09-06T00:06:09;40.69;39.63;45.56;;
67320;Laerm;57665;51.436;5.978;2022-09-06T00:06:19;40.87;39.46;44.89;;
67320;Laerm;57665;51.436;5.978;2022-09-06T00:06:29;41.02;39.42;47.55;;
67320;Laerm;57665;51.436;5.978;2022-09-06T00:06:39;41.33;39.91;46.25;;
67320;Laerm;57665;51.436;5.978;2022-09-06T00:06:50;41.49;40.20;43.99;;
67320;Laerm;57665;51.436;5.978;2022-09-06T00:07:00;41.66;40.22;44.88;;
67320;Laerm;57665;51.436;5.978;2022-09-06T00:07:10;41.84;40.42;48.09;;
67320;Laerm;57665;51.436;5.978;2022-09-06T00:07:20;41.88;40.32;48.27;;
67320;Laerm;57665;51.436;5.978;2022-09-06T00:07:31;42.36;40.72;51.13;;
67320;Laerm;57665;51.436;5.978;2022-09-06T00:07:41;42.59;40.90;48.40;;
67320;Laerm;57665;51.436;5.978;2022-09-06T00:07:52;42.81;41.10;47.63;;
67320;Laerm;57665;51.436;5.978;2022-09-06T00:08:02;46.04;40.80;48.95;;
67320;Laerm;57665;51.436;5.978;2022-09-06T00:08:13;42.33;40.90;47.98;;
67320;Laerm;57665;51.436;5.978;2022-09-06T00:08:24;42.45;41.12;45.44;;
67320;Laerm;57665;51.436;5.978;2022-09-06T00:08:34;42.30;40.82;45.28;;
67320;Laerm;57665;51.436;5.978;2022-09-06T00:08:44;42.44;40.80;47.20;;
67320;Laerm;57665;51.436;5.978;2022-09-06T00:08:55;42.79;40.78;46.16;;
67320;Laerm;57665;51.436;5.978;2022-09-06T00:09:05;62.31;41.97;72.07;;
67320;Laerm;57665;51.436;5.978;2022-09-06T00:09:15;65.35;61.38;68.27;;
67320;Laerm;57665;51.436;5.978;2022-09-06T00:09:26;63.85;60.33;67.59;;
67320;Laerm;57665;51.436;5.978;2022-09-06T00:09:36;58.63;43.08;67.53;;
67320;Laerm;57665;51.436;5.978;2022-09-06T00:09:46;43.57;41.71;49.14;;
67320;Laerm;57665;51.436;5.978;2022-09-06T00:09:56;43.49;41.90;49.07;;
67320;Laerm;57665;51.436;5.978;2022-09-06T00:10:06;43.62;41.95;47.12;;
67320;Laerm;57665;51.436;5.978;2022-09-06T00:10:17;43.15;41.31;46.88;;
67320;Laerm;57665;51.436;5.978;2022-09-06T00:10:27;43.03;41.66;47.22;;
67320;Laerm;57665;51.436;5.978;2022-09-06T00:10:38;43.45;41.52;49.14;;
67320;Laerm;57665;51.436;5.978;2022-09-06T00:10:55;43.38;41.77;47.16;;
67320;Laerm;57665;51.436;5.978;2022-09-06T00:11:07;42.63;40.90;47.68;;
67320;Laerm;57665;51.436;5.978;2022-09-06T00:11:17;42.28;40.67;46.60;;
67320;Laerm;57665;51.436;5.978;2022-09-06T00:11:27;42.07;40.61;48.06;;
67320;Laerm;57665;51.436;5.978;2022-09-06T00:11:37;41.96;40.67;45.17;;
67320;Laerm;57665;51.436;5.978;2022-09-06T00:11:48;42.63;41.27;45.99;;
67320;Laerm;57665;51.436;5.978;2022-09-06T00:11:58;42.54;41.15;45.97;;
67320;Laerm;57665;51.436;5.978;2022-09-06T00:12:08;42.40;41.17;44.35;;
67320;Laerm;57665;51.436;5.978;2022-09-06T00:12:18;42.44;41.04;46.62;;
67320;Laerm;57665;51.436;5.978;2022-09-06T00:12:29;42.27;40.87;45.13;;
67320;Laerm;57665;51.436;5.978;2022-09-06T00:12:39;42.00;40.70;45.08;;
67320;Laerm;57665;51.436;5.978;2022-09-06T00:12:50;42.06;40.77;43.88;;
67320;Laerm;57665;51.436;5.978;2022-09-06T00:13:04;42.24;40.94;44.48;;
67320;Laerm;57665;51.436;5.978;2022-09-06T00:13:14;64.74;41.49;73.18;;
67320;Laerm;57665;51.436;5.978;2022-09-06T00:13:25;69.25;63.43;74.73;;
67320;Laerm;57665;51.436;5.978;2022-09-06T00:13:35;64.46;44.62;71.61;;
67320;Laerm;57665;51.436;5.978;2022-09-06T00:13:46;42.38;40.68;45.93;;
67320;Laerm;57665;51.436;5.978;2022-09-06T00:13:56;41.57;40.11;45.26;;
67320;Laerm;57665;51.436;5.978;2022-09-06T00:14:06;41.42;39.82;44.82;;
67320;Laerm;57665;51.436;5.978;2022-09-06T00:14:16;41.67;40.24;49.80;;
67320;Laerm;57665;51.436;5.978;2022-09-06T00:14:27;41.63;40.26;46.08;;
67320;Laerm;57665;51.436;5.978;2022-09-06T00:14:37;41.81;40.20;47.89;;
67320;Laerm;57665;51.436;5.978;2022-09-06T00:14:47;41.84;40.38;47.16;;
67320;Laerm;57665;51.436;5.978;2022-09-06T00:14:57;41.66;40.47;45.47;;
67320;Laerm;57665;51.436;5.978;2022-09-06T00:15:08;42.00;40.79;45.57;;
67320;Laerm;57665;51.436;5.978;2022-09-06T00:15:18;42.44;40.46;45.26;;
67320;Laerm;57665;51.436;5.978;2022-09-06T00:15:28;42.91;41.44;45.45;;
67320;Laerm;57665;51.436;5.978;2022-09-06T00:15:38;43.54;42.03;46.43;;
67320;Laerm;57665;51.436;5.978;2022-09-06T00:15:49;44.09;42.30;47.66;;
67320;Laerm;57665;51.436;5.978;2022-09-06T00:16:09;43.72;42.17;46.68;;
67320;Laerm;57665;51.436;5.978;2022-09-06T00:16:21;43.35;41.51;48.16;;
67320;Laerm;57665;51.436;5.978;2022-09-06T00:16:32;42.67;41.07;46.86;;
67320;Laerm;57665;51.436;5.978;2022-09-06T00:16:43;42.09;40.74;44.74;;
67320;Laerm;57665;51.436;5.978;2022-09-06T00:16:54;42.26;40.63;46.11;;
67320;Laerm;57665;51.436;5.978;2022-09-06T00:17:04;42.26;40.51;46.07;;
67320;Laerm;57665;51.436;5.978;2022-09-06T00:17:14;42.30;40.77;46.98;;
67320;Laerm;57665;51.436;5.978;2022-09-06T00:17:24;41.95;40.18;46.87;;
67320;Laerm;57665;51.436;5.978;2022-09-06T00:17:34;42.13;40.67;47.11;;
67320;Laerm;57665;51.436;5.978;2022-09-06T00:17:44;42.25;40.67;48.82;;
67320;Laerm;57665;51.436;5.978;2022-09-06T00:17:56;41.96;40.47;45.54;;
67320;Laerm;57665;51.436;5.978;2022-09-06T00:18:07;42.41;40.51;53.11;;
67320;Laerm;57665;51.436;5.978;2022-09-06T00:18:17;42.05;40.54;46.70;;
67320;Laerm;57665;51.436;5.978;2022-09-06T00:18:27;41.86;40.19;45.94;;
67320;Laerm;57665;51.436;5.978;2022-09-06T00:18:38;41.29;39.94;43.56;;
67320;Laerm;57665;51.436;5.978;2022-09-06T00:18:48;41.03;39.73;44.84;;
67320;Laerm;57665;51.436;5.978;2022-09-06T00:18:59;42.28;40.25;48.70;;
67320;Laerm;57665;51.436;5.978;2022-09-06T00:19:09;42.09;40.73;44.85;;
67320;Laerm;57665;51.436;5.978;2022-09-06T00:19:19;42.53;40.67;45.11;;
67320;Laerm;57665;51.436;5.978;2022-09-06T00:19:29;42.47;41.36;44.96;;
67320;Laerm;57665;51.436;5.978;2022-09-06T00:19:40;42.51;40.90;48.20;;
67320;Laerm;57665;51.436;5.978;2022-09-06T00:19:50;42.42;40.72;45.23;;
67320;Laerm;57665;51.436;5.978;2022-09-06T00:20:00;41.96;40.70;45.33;;
67320;Laerm;57665;51.436;5.978;2022-09-06T00:20:10;42.39;41.05;46.32;;
67320;Laerm;57665;51.436;5.978;2022-09-06T00:20:21;54.19;40.56;65.20;;
67320;Laerm;57665;51.436;5.978;2022-09-06T00:20:31;66.16;62.70;69.22;;
67320;Laerm;57665;51.436;5.978;2022-09-06T00:20:42;67.94;63.46;74.82;;
67320;Laerm;57665;51.436;5.978;2022-09-06T00:20:52;59.75;41.47;71.13;;
67320;Laerm;57665;51.436;5.978;2022-09-06T00:21:02;41.41;40.05;43.53;;
67320;Laerm;57665;51.436;5.978;2022-09-06T00:21:15;41.13;39.61;44.11;;
67320;Laerm;57665;51.436;5.978;2022-09-06T00:21:26;41.29;39.78;45.02;;
67320;Laerm;57665;51.436;5.978;2022-09-06T00:21:37;41.58;40.02;44.94;;
67320;Laerm;57665;51.436;5.978;2022-09-06T00:21:47;41.84;40.31;45.32;;
67320;Laerm;57665;51.436;5.978;2022-09-06T00:21:57;42.92;40.71;57.25;;
67320;Laerm;57665;51.436;5.978;2022-09-06T00:22:08;42.41;40.43;44.97;;
67320;Laerm;57665;51.436;5.978;2022-09-06T00:22:18;41.46;39.80;44.50;;
67320;Laerm;57665;51.436;5.978;2022-09-06T00:22:28;41.03;39.65;43.19;;
67320;Laerm;57665;51.436;5.978;2022-09-06T00:22:38;40.87;39.46;44.41;;
67320;Laerm;57665;51.436;5.978;2022-09-06T00:22:49;42.97;39.56;47.45;;
67320;Laerm;57665;51.436;5.978;2022-09-06T00:23:01;43.69;39.77;47.54;;
67320;Laerm;57665;51.436;5.978;2022-09-06T00:23:11;40.79;39.56;43.00;;
67320;Laerm;57665;51.436;5.978;2022-09-06T00:23:21;41.29;39.97;43.63;;
67320;Laerm;57665;51.436;5.978;2022-09-06T00:23:32;41.08;39.65;48.25;;
67320;Laerm;57665;51.436;5.978;2022-09-06T00:23:42;40.76;39.40;44.82;;
67320;Laerm;57665;51.436;5.978;2022-09-06T00:23:52;40.60;39.44;45.76;;
67320;Laerm;57665;51.436;5.978;2022-09-06T00:24:03;40.48;39.33;44.56;;
67320;Laerm;57665;51.436;5.978;2022-09-06T00:24:13;40.51;39.26;42.79;;
67320;Laerm;57665;51.436;5.978;2022-09-06T00:24:23;40.70;39.42;45.45;;
67320;Laerm;57665;51.436;5.978;2022-09-06T00:24:34;40.81;39.39;43.43;;
67320;Laerm;57665;51.436;5.978;2022-09-06T00:24:46;41.07;39.51;51.02;;
67320;Laerm;57665;51.436;5.978;2022-09-06T00:24:56;41.26;39.78;44.94;;
67320;Laerm;57665;51.436;5.978;2022-09-06T00:25:06;41.60;40.17;45.01;;
67320;Laerm;57665;51.436;5.978;2022-09-06T00:25:16;41.20;39.74;46.40;;
67320;Laerm;57665;51.436;5.978;2022-09-06T00:25:27;40.84;39.42;47.28;;
67320;Laerm;57665;51.436;5.978;2022-09-06T00:25:38;40.90;39.68;44.09;;
67320;Laerm;57665;51.436;5.978;2022-09-06T00:25:50;40.58;39.25;45.11;;
67320;Laerm;57665;51.436;5.978;2022-09-06T00:26:01;40.53;39.05;44.21;;
67320;Laerm;57665;51.436;5.978;2022-09-06T00:26:12;40.43;39.36;43.65;;
67320;Laerm;57665;51.436;5.978;2022-09-06T00:26:22;40.26;38.99;42.65;;
67320;Laerm;57665;51.436;5.978;2022-09-06T00:26:33;41.05;39.31;56.41;;
67320;Laerm;57665;51.436;5.978;2022-09-06T00:26:44;40.19;39.20;42.65;;
67320;Laerm;57665;51.436;5.978;2022-09-06T00:26:54;40.47;39.16;46.48;;
67320;Laerm;57665;51.436;5.978;2022-09-06T00:27:05;40.49;38.98;43.68;;
67320;Laerm;57665;51.436;5.978;2022-09-06T00:27:16;40.57;39.02;42.89;;
67320;Laerm;57665;51.436;5.978;2022-09-06T00:27:26;40.86;39.67;44.86;;
67320;Laerm;57665;51.436;5.978;2022-09-06T00:27:37;40.76;39.41;45.33;;
67320;Laerm;57665;51.436;5.978;2022-09-06T00:27:51;40.65;39.17;47.24;;
67320;Laerm;57665;51.436;5.978;2022-09-06T00:28:02;40.41;39.08;42.82;;
67320;Laerm;57665;51.436;5.978;2022-09-06T00:28:13;40.28;39.02;43.05;;
67320;Laerm;57665;51.436;5.978;2022-09-06T00:28:24;40.18;38.92;43.26;;
67320;Laerm;57665;51.436;5.978;2022-09-06T00:28:34;40.02;38.84;43.97;;
67320;Laerm;57665;51.436;5.978;2022-09-06T00:28:45;39.98;38.95;43.44;;
67320;Laerm;57665;51.436;5.978;2022-09-06T00:28:55;39.86;38.83;42.28;;
67320;Laerm;57665;51.436;5.978;2022-09-06T00:29:05;39.89;38.72;44.42;;
67320;Laerm;57665;51.436;5.978;2022-09-06T00:29:15;39.86;38.85;41.97;;
67320;Laerm;57665;51.436;5.978;2022-09-06T00:29:25;39.82;38.70;42.14;;
67320;Laerm;57665;51.436;5.978;2022-09-06T00:29:36;39.68;38.48;44.75;;
67320;Laerm;57665;51.436;5.978;2022-09-06T00:29:46;39.58;38.39;40.85;;
67320;Laerm;57665;51.436;5.978;2022-09-06T00:29:56;39.67;38.49;43.44;;
67320;Laerm;57665;51.436;5.978;2022-09-06T00:30:07;39.70;38.56;41.61;;
67320;Laerm;57665;51.436;5.978;2022-09-06T00:30:17;39.73;38.59;42.18;;
67320;Laerm;57665;51.436;5.978;2022-09-06T00:30:28;39.69;38.43;43.01;;
67320;Laerm;57665;51.436;5.978;2022-09-06T00:30:38;40.41;38.38;55.36;;
67320;Laerm;57665;51.436;5.978;2022-09-06T00:30:49;39.63;38.36;40.86;;
67320;Laerm;57665;51.436;5.978;2022-09-06T00:31:06;39.67;38.68;44.37;;
67320;Laerm;57665;51.436;5.978;2022-09-06T00:31:17;40.17;38.81;44.86;;
67320;Laerm;57665;51.436;5.978;2022-09-06T00:31:28;39.92;38.97;41.22;;
67320;Laerm;57665;51.436;5.978;2022-09-06T00:31:38;40.00;38.75;45.87;;
67320;Laerm;57665;51.436;5.978;2022-09-06T00:31:48;40.05;39.03;45.06;;
67320;Laerm;57665;51.436;5.978;2022-09-06T00:31:58;40.09;38.77;43.75;;
67320;Laerm;57665;51.436;5.978;2022-09-06T00:32:09;39.94;39.05;42.31;;
67320;Laerm;57665;51.436;5.978;2022-09-06T00:32:19;39.95;38.78;41.88;;
67320;Laerm;57665;51.436;5.978;2022-09-06T00:32:30;39.95;38.67;43.68;;
67320;Laerm;57665;51.436;5.978;2022-09-06T00:32:40;39.90;38.78;41.89;;
67320;Laerm;57665;51.436;5.978;2022-09-06T00:32:50;39.97;38.82;41.30;;
67320;Laerm;57665;51.436;5.978;2022-09-06T00:33:00;40.00;38.98;43.03;;
67320;Laerm;57665;51.436;5.978;2022-09-06T00:33:10;39.99;38.94;41.54;;
67320;Laerm;57665;51.436;5.978;2022-09-06T00:33:22;40.02;38.98;41.40;;
67320;Laerm;57665;51.436;5.978;2022-09-06T00:33:32;40.05;38.80;41.08;;
67320;Laerm;57665;51.436;5.978;2022-09-06T00:33:43;40.13;38.96;45.95;;
67320;Laerm;57665;51.436;5.978;2022-09-06T00:33:53;40.45;38.93;44.08;;
67320;Laerm;57665;51.436;5.978;2022-09-06T00:34:03;40.74;39.59;43.81;;
67320;Laerm;57665;51.436;5.978;2022-09-06T00:34:14;40.62;39.44;44.09;;
67320;Laerm;57665;51.436;5.978;2022-09-06T00:34:24;40.41;38.85;42.92;;
67320;Laerm;57665;51.436;5.978;2022-09-06T00:34:34;40.36;39.14;43.39;;
67320;Laerm;57665;51.436;5.978;2022-09-06T00:34:44;41.03;39.34;56.48;;
67320;Laerm;57665;51.436;5.978;2022-09-06T00:34:55;40.37;39.25;42.98;;
67320;Laerm;57665;51.436;5.978;2022-09-06T00:35:05;40.40;39.26;42.69;;
67320;Laerm;57665;51.436;5.978;2022-09-06T00:35:16;40.48;39.43;42.47;;
67320;Laerm;57665;51.436;5.978;2022-09-06T00:35:26;40.53;39.41;42.94;;
67320;Laerm;57665;51.436;5.978;2022-09-06T00:35:37;40.34;39.32;42.80;;
67320;Laerm;57665;51.436;5.978;2022-09-06T00:35:47;40.21;38.99;42.51;;
67320;Laerm;57665;51.436;5.978;2022-09-06T00:35:58;39.97;38.74;41.60;;
67320;Laerm;57665;51.436;5.978;2022-09-06T00:36:09;40.06;38.81;42.58;;
67320;Laerm;57665;51.436;5.978;2022-09-06T00:36:20;40.16;38.74;42.57;;
67320;Laerm;57665;51.436;5.978;2022-09-06T00:36:31;40.14;38.84;43.41;;
67320;Laerm;57665;51.436;5.978;2022-09-06T00:36:41;40.00;38.88;42.38;;
67320;Laerm;57665;51.436;5.978;2022-09-06T00:36:51;40.10;39.09;43.09;;
67320;Laerm;57665;51.436;5.978;2022-09-06T00:37:01;40.13;38.94;43.82;;
67320;Laerm;57665;51.436;5.978;2022-09-06T00:37:12;40.12;38.96;41.59;;
67320;Laerm;57665;51.436;5.978;2022-09-06T00:37:22;40.07;39.00;42.21;;
67320;Laerm;57665;51.436;5.978;2022-09-06T00:37:32;40.10;39.07;41.35;;
67320;Laerm;57665;51.436;5.978;2022-09-06T00:37:42;44.17;39.28;46.62;;
67320;Laerm;57665;51.436;5.978;2022-09-06T00:37:55;40.14;39.08;41.48;;
67320;Laerm;57665;51.436;5.978;2022-09-06T00:38:05;40.17;38.93;43.75;;
67320;Laerm;57665;51.436;5.978;2022-09-06T00:38:15;40.29;39.30;43.81;;
67320;Laerm;57665;51.436;5.978;2022-09-06T00:38:26;40.50;39.39;44.38;;
67320;Laerm;57665;51.436;5.978;2022-09-06T00:38:36;41.16;39.44;47.59;;
67320;Laerm;57665;51.436;5.978;2022-09-06T00:38:46;42.43;39.68;58.40;;
67320;Laerm;57665;51.436;5.978;2022-09-06T00:38:57;41.04;39.63;44.00;;
67320;Laerm;57665;51.436;5.978;2022-09-06T00:39:07;41.84;39.60;56.60;;
67320;Laerm;57665;51.436;5.978;2022-09-06T00:39:17;40.89;39.47;49.74;;
67320;Laerm;57665;51.436;5.978;2022-09-06T00:39:28;41.34;39.04;52.27;;
67320;Laerm;57665;51.436;5.978;2022-09-06T00:39:38;40.52;39.50;43.55;;
67320;Laerm;57665;51.436;5.978;2022-09-06T00:39:48;40.71;39.57;44.54;;
67320;Laerm;57665;51.436;5.978;2022-09-06T00:39:58;40.90;39.37;51.55;;
67320;Laerm;57665;51.436;5.978;2022-09-06T00:40:08;40.97;39.64;43.66;;
67320;Laerm;57665;51.436;5.978;2022-09-06T00:40:19;42.01;39.92;47.26;;
67320;Laerm;57665;51.436;5.978;2022-09-06T00:40:31;48.62;40.78;71.82;;
67320;Laerm;57665;51.436;5.978;2022-09-06T00:40:42;41.45;39.92;49.61;;
67320;Laerm;57665;51.436;5.978;2022-09-06T00:40:53;41.69;39.75;49.02;;
67320;Laerm;57665;51.436;5.978;2022-09-06T00:41:03;41.91;40.37;43.07;;
67320;Laerm;57665;51.436;5.978;2022-09-06T00:41:14;42.84;40.71;52.90;;
67320;Laerm;57665;51.436;5.978;2022-09-06T00:41:24;41.87;40.34;46.32;;
67320;Laerm;57665;51.436;5.978;2022-09-06T00:41:34;42.02;40.79;48.95;;
67320;Laerm;57665;51.436;5.978;2022-09-06T00:41:45;41.71;40.09;44.99;;
67320;Laerm;57665;51.436;5.978;2022-09-06T00:41:55;41.89;39.91;49.30;;
67320;Laerm;57665;51.436;5.978;2022-09-06T00:42:08;42.36;39.83;49.15;;
67320;Laerm;57665;51.436;5.978;2022-09-06T00:42:19;40.76;39.29;48.06;;
67320;Laerm;57665;51.436;5.978;2022-09-06T00:42:29;41.22;39.11;56.67;;
67320;Laerm;57665;51.436;5.978;2022-09-06T00:42:39;40.40;39.41;43.74;;
67320;Laerm;57665;51.436;5.978;2022-09-06T00:42:49;42.04;39.41;56.75;;
67320;Laerm;57665;51.436;5.978;2022-09-06T00:43:00;40.61;39.36;46.03;;
67320;Laerm;57665;51.436;5.978;2022-09-06T00:43:11;41.13;39.32;46.08;;
67320;Laerm;57665;51.436;5.978;2022-09-06T00:43:21;40.52;39.07;44.57;;
67320;Laerm;57665;51.436;5.978;2022-09-06T00:43:31;40.36;39.15;43.40;;
67320;Laerm;57665;51.436;5.978;2022-09-06T00:43:42;40.37;39.31;41.67;;
67320;Laerm;57665;51.436;5.978;2022-09-06T00:43:52;40.33;39.18;41.35;;
67320;Laerm;57665;51.436;5.978;2022-09-06T00:44:04;40.48;39.55;42.02;;
67320;Laerm;57665;51.436;5.978;2022-09-06T00:44:14;40.68;39.55;42.77;;
67320;Laerm;57665;51.436;5.978;2022-09-06T00:44:24;40.67;39.23;43.86;;
67320;Laerm;57665;51.436;5.978;2022-09-06T00:44:34;40.44;39.17;41.58;;
67320;Laerm;57665;51.436;5.978;2022-09-06T00:44:44;40.64;39.18;42.13;;
67320;Laerm;57665;51.436;5.978;2022-09-06T00:44:55;40.76;39.33;41.87;;
67320;Laerm;57665;51.436;5.978;2022-09-06T00:45:05;40.85;39.64;41.92;;
67320;Laerm;57665;51.436;5.978;2022-09-06T00:45:16;44.40;40.04;56.17;;
67320;Laerm;57665;51.436;5.978;2022-09-06T00:45:27;62.37;49.92;70.04;;
67320;Laerm;57665;51.436;5.978;2022-09-06T00:45:38;63.06;57.91;71.49;;
67320;Laerm;57665;51.436;5.978;2022-09-06T00:45:49;51.47;40.38;60.73;;
67320;Laerm;57665;51.436;5.978;2022-09-06T00:46:00;41.26;39.94;42.64;;
67320;Laerm;57665;51.436;5.978;2022-09-06T00:46:13;41.17;39.80;42.36;;
67320;Laerm;57665;51.436;5.978;2022-09-06T00:46:26;41.26;39.89;42.47;;
67320;Laerm;57665;51.436;5.978;2022-09-06T00:46:36;41.43;40.07;42.69;;
67320;Laerm;57665;51.436;5.978;2022-09-06T00:46:48;41.58;40.37;42.82;;
67320;Laerm;57665;51.436;5.978;2022-09-06T00:47:00;41.66;40.07;43.06;;
67320;Laerm;57665;51.436;5.978;2022-09-06T00:47:11;41.69;40.56;42.89;;
67320;Laerm;57665;51.436;5.978;2022-09-06T00:47:21;41.77;40.18;43.24;;
67320;Laerm;57665;51.436;5.978;2022-09-06T00:47:32;41.79;40.18;43.20;;
67320;Laerm;57665;51.436;5.978;2022-09-06T00:47:43;41.93;40.57;43.85;;
67320;Laerm;57665;51.436;5.978;2022-09-06T00:47:54;41.90;40.57;43.29;;
67320;Laerm;57665;51.436;5.978;2022-09-06T00:48:04;41.88;40.29;44.19;;
67320;Laerm;57665;51.436;5.978;2022-09-06T00:48:15;42.06;40.52;43.50;;
67320;Laerm;57665;51.436;5.978;2022-09-06T00:48:26;42.16;40.69;43.67;;
67320;Laerm;57665;51.436;5.978;2022-09-06T00:48:36;42.28;40.93;43.66;;
67320;Laerm;57665;51.436;5.978;2022-09-06T00:48:49;42.19;40.69;43.50;;
67320;Laerm;57665;51.436;5.978;2022-09-06T00:49:01;42.13;40.85;43.57;;
67320;Laerm;57665;51.436;5.978;2022-09-06T00:49:14;42.12;40.60;43.85;;
67320;Laerm;57665;51.436;5.978;2022-09-06T00:49:31;42.16;40.67;43.72;;
67320;Laerm;57665;51.436;5.978;2022-09-06T00:49:44;42.47;40.91;55.49;;
67320;Laerm;57665;51.436;5.978;2022-09-06T00:49:55;42.11;40.65;43.61;;
67320;Laerm;57665;51.436;5.978;2022-09-06T00:50:08;42.14;40.74;43.66;;
67320;Laerm;57665;51.436;5.978;2022-09-06T00:50:19;42.26;40.58;43.76;;
67320;Laerm;57665;51.436;5.978;2022-09-06T00:50:29;42.17;40.74;43.53;;
67320;Laerm;57665;51.436;5.978;2022-09-06T00:50:39;42.13;40.72;43.37;;
67320;Laerm;57665;51.436;5.978;2022-09-06T00:50:51;42.22;40.93;44.25;;
67320;Laerm;57665;51.436;5.978;2022-09-06T00:51:03;42.29;40.68;43.45;;
67320;Laerm;57665;51.436;5.978;2022-09-06T00:51:15;42.33;40.99;44.00;;
67320;Laerm;57665;51.436;5.978;2022-09-06T00:51:26;42.34;40.80;43.96;;
67320;Laerm;57665;51.436;5.978;2022-09-06T00:51:37;42.28;40.86;43.51;;
67320;Laerm;57665;51.436;5.978;2022-09-06T00:51:48;42.28;40.27;43.50;;
67320;Laerm;57665;51.436;5.978;2022-09-06T00:52:04;42.19;40.72;43.54;;
67320;Laerm;57665;51.436;5.978;2022-09-06T00:52:15;42.17;40.68;43.90;;
67320;Laerm;57665;51.436;5.978;2022-09-06T00:52:26;42.14;40.40;43.56;;
67320;Laerm;57665;51.436;5.978;2022-09-06T00:52:36;42.10;40.42;43.36;;
67320;Laerm;57665;51.436;5.978;2022-09-06T00:52:47;42.30;40.61;45.47;;
67320;Laerm;57665;51.436;5.978;2022-09-06T00:52:59;43.96;40.80;46.90;;
67320;Laerm;57665;51.436;5.978;2022-09-06T00:53:10;41.82;40.47;43.11;;
67320;Laerm;57665;51.436;5.978;2022-09-06T00:53:20;41.95;40.64;43.72;;
67320;Laerm;57665;51.436;5.978;2022-09-06T00:53:31;42.10;40.70;43.34;;
67320;Laerm;57665;51.436;5.978;2022-09-06T00:53:41;41.96;40.42;43.55;;
67320;Laerm;57665;51.436;5.978;2022-09-06T00:53:52;42.01;40.78;43.41;;
67320;Laerm;57665;51.436;5.978;2022-09-06T00:54:03;41.98;40.45;43.38;;
67320;Laerm;57665;51.436;5.978;2022-09-06T00:54:14;42.01;40.55;43.51;;
67320;Laerm;57665;51.436;5.978;2022-09-06T00:54:24;42.00;40.35;43.30;;
67320;Laerm;57665;51.436;5.978;2022-09-06T00:54:34;42.13;40.88;44.08;;
67320;Laerm;57665;51.436;5.978;2022-09-06T00:54:45;42.15;40.74;43.73;;
67320;Laerm;57665;51.436;5.978;2022-09-06T00:54:56;42.16;40.95;43.51;;
67320;Laerm;57665;51.436;5.978;2022-09-06T00:55:07;42.27;40.21;43.69;;
67320;Laerm;57665;51.436;5.978;2022-09-06T00:55:17;42.21;40.72;43.63;;
67320;Laerm;57665;51.436;5.978;2022-09-06T00:55:28;42.48;40.82;55.54;;
67320;Laerm;57665;51.436;5.978;2022-09-06T00:55:38;42.15;40.69;43.89;;
67320;Laerm;57665;51.436;5.978;2022-09-06T00:55:50;42.27;40.67;43.64;;
67320;Laerm;57665;51.436;5.978;2022-09-06T00:56:01;42.19;40.76;43.73;;
67320;Laerm;57665;51.436;5.978;2022-09-06T00:56:12;42.06;40.72;43.39;;
67320;Laerm;57665;51.436;5.978;2022-09-06T00:56:22;42.15;40.73;43.46;;
67320;Laerm;57665;51.436;5.978;2022-09-06T00:56:34;42.14;40.84;43.31;;
67320;Laerm;57665;51.436;5.978;2022-09-06T00:56:46;42.16;40.65;43.28;;
67320;Laerm;57665;51.436;5.978;2022-09-06T00:56:57;41.99;40.62;43.15;;
67320;Laerm;57665;51.436;5.978;2022-09-06T00:57:07;42.03;40.38;43.06;;
67320;Laerm;57665;51.436;5.978;2022-09-06T00:57:17;41.92;40.71;43.29;;
67320;Laerm;57665;51.436;5.978;2022-09-06T00:57:28;41.94;40.64;43.65;;
67320;Laerm;57665;51.436;5.978;2022-09-06T00:57:40;41.92;40.56;43.87;;
67320;Laerm;57665;51.436;5.978;2022-09-06T00:57:51;41.85;40.48;43.20;;
67320;Laerm;57665;51.436;5.978;2022-09-06T00:58:01;41.92;40.71;43.82;;
67320;Laerm;57665;51.436;5.978;2022-09-06T00:58:11;41.71;40.22;43.00;;
67320;Laerm;57665;51.436;5.978;2022-09-06T00:58:22;41.59;39.91;42.68;;
67320;Laerm;57665;51.436;5.978;2022-09-06T00:58:33;41.42;39.83;43.53;;
67320;Laerm;57665;51.436;5.978;2022-09-06T00:58:44;41.37;39.87;42.53;;
67320;Laerm;57665;51.436;5.978;2022-09-06T00:58:54;41.44;40.16;42.60;;
67320;Laerm;57665;51.436;5.978;2022-09-06T00:59:05;41.24;39.66;42.41;;
67320;Laerm;57665;51.436;5.978;2022-09-06T00:59:15;41.17;39.99;42.30;;
67320;Laerm;57665;51.436;5.978;2022-09-06T00:59:27;41.14;39.97;42.31;;
67320;Laerm;57665;51.436;5.978;2022-09-06T00:59:38;41.04;39.87;42.29;;
67320;Laerm;57665;51.436;5.978;2022-09-06T00:59:50;41.04;39.89;42.44;;
67320;Laerm;57665;51.436;5.978;2022-09-06T01:00:01;40.97;39.57;42.43;;
67320;Laerm;57665;51.436;5.978;2022-09-06T01:00:11;41.27;39.79;43.38;;